ベルファスト/国際 の空港の天気 - METARとTAF

ベルファスト国際空港 ( EGAA / BFS ) - イギリス ベルファスト
飛行場実況気象(Metar)
観測時間11/12 15:50 GMT (11/12 15:50 UTC)
風向・風速北西 3m/s
視程10km以上
天気現象
少しの雲 雲底高度 550m
全天の4割程度の雲 雲底高度 820m
気温7℃
湿度87%
気圧1001hPa
METAREGAA 121550Z 31005KT 280V350 9999 FEW018 SCT027 07/05 Q1001
過去の天気等 Google飛行場航空写真 Wunderground天気予報

過去48時間のMETAR

飛行場予報(TAF)
発表時間: 11/12 10:59 GMT (11/12 10:59 UTC)
予報対象時間: 12日12時 GMT ~ 13日12時 GMT
風向・風速北西 8m/s 瞬間風速 13m/s
視程10km以上
少しの雲 雲底高度 610m
全天の4割程度の雲 雲底高度 910m
12日12時 GMT ~ 12日23時 GMT に一時的に
視程7000m
天気現象しゅう雨
12日15時 GMT ~ 12日18時 GMT に徐々に
風向・風速西 4m/s
12日18時 GMT ~ 12日23時 GMT に 確率 30% で一時的に
全天の8割程度の雲 雲底高度 430m
13日2時 GMT から 確率 30% で
視程3000m
天気現象もや
全天の8割程度の雲 雲底高度 120m
TAF EGAA 121059Z 1212/1312 32015G25KT 9999 FEW020 SCT030
TEMPO 1212/1223 7000 SHRA
BECMG 1215/1218 28008KT
PROB30 TEMPO 1218/1223 BKN014
PROB30 1302/1308 3000 BR BKN004